sensor_id;sensor_type;location;lat;lon;timestamp;pressure;altitude;pressure_sealevel;temperature;humidity
65329;BME280;51941;52.210;5.158;2022-07-23T00:01:03;101793.03;;;15.20;72.02
65329;BME280;51941;52.210;5.158;2022-07-23T00:03:31;101800.19;;;15.31;71.41
65329;BME280;51941;52.210;5.158;2022-07-23T00:05:58;101884.78;;;15.87;71.41
65329;BME280;51941;52.210;5.158;2022-07-23T00:08:25;101872.47;;;15.86;71.22
65329;BME280;51941;52.210;5.158;2022-07-23T00:10:52;101841.38;;;15.64;72.17
65329;BME280;51941;52.210;5.158;2022-07-23T00:13:19;101876.66;;;15.82;72.03
65329;BME280;51941;52.210;5.158;2022-07-23T00:15:45;101731.53;;;14.70;73.29
65329;BME280;51941;52.210;5.158;2022-07-23T00:18:12;101868.41;;;15.55;73.77
65329;BME280;51941;52.210;5.158;2022-07-23T00:20:40;101878.72;;;15.64;73.20
65329;BME280;51941;52.210;5.158;2022-07-23T00:23:07;101839.63;;;15.29;73.00
65329;BME280;51941;52.210;5.158;2022-07-23T00:25:34;101762.78;;;14.74;72.91
65329;BME280;51941;52.210;5.158;2022-07-23T00:28:01;101846.25;;;15.27;73.04
65329;BME280;51941;52.210;5.158;2022-07-23T00:30:29;101870.06;;;15.45;72.80
65329;BME280;51941;52.210;5.158;2022-07-23T00:32:58;101871.38;;;15.42;72.40
65329;BME280;51941;52.210;5.158;2022-07-23T00:35:27;101869.16;;;15.39;72.39
65329;BME280;51941;52.210;5.158;2022-07-23T00:37:56;101840.50;;;15.18;72.60
65329;BME280;51941;52.210;5.158;2022-07-23T00:40:24;101821.84;;;15.06;73.25
65329;BME280;51941;52.210;5.158;2022-07-23T00:42:51;101863.03;;;15.27;73.43
65329;BME280;51941;52.210;5.158;2022-07-23T00:45:19;101859.47;;;15.22;74.45
65329;BME280;51941;52.210;5.158;2022-07-23T00:47:46;101826.00;;;15.02;73.58
65329;BME280;51941;52.210;5.158;2022-07-23T00:50:13;101853.56;;;15.19;73.29
65329;BME280;51941;52.210;5.158;2022-07-23T00:52:41;101860.19;;;15.17;73.29
65329;BME280;51941;52.210;5.158;2022-07-23T00:55:10;101838.88;;;15.05;73.75
65329;BME280;51941;52.210;5.158;2022-07-23T00:57:38;101846.75;;;15.12;74.17
65329;BME280;51941;52.210;5.158;2022-07-23T01:00:08;101768.84;;;14.58;74.29
65329;BME280;51941;52.210;5.158;2022-07-23T01:02:36;101849.41;;;15.12;73.94
65329;BME280;51941;52.210;5.158;2022-07-23T01:05:04;101741.88;;;14.43;74.27
65329;BME280;51941;52.210;5.158;2022-07-23T01:07:31;101853.63;;;15.08;74.50
65329;BME280;51941;52.210;5.158;2022-07-23T01:09:58;101648.53;;;13.86;74.54
65329;BME280;51941;52.210;5.158;2022-07-23T01:12:27;101705.31;;;14.15;74.24
65329;BME280;51941;52.210;5.158;2022-07-23T01:14:55;101634.75;;;13.66;74.72
65329;BME280;51941;52.210;5.158;2022-07-23T01:17:22;101839.34;;;15.02;74.45
65329;BME280;51941;52.210;5.158;2022-07-23T01:19:49;101827.88;;;15.02;74.38
65329;BME280;51941;52.210;5.158;2022-07-23T01:22:18;101824.88;;;14.98;75.03
65329;BME280;51941;52.210;5.158;2022-07-23T01:24:46;101830.09;;;14.93;76.43
65329;BME280;51941;52.210;5.158;2022-07-23T01:27:15;101814.81;;;14.77;74.41
65329;BME280;51941;52.210;5.158;2022-07-23T01:29:43;101830.59;;;14.90;74.39
65329;BME280;51941;52.210;5.158;2022-07-23T01:32:16;101667.69;;;13.88;74.79
65329;BME280;51941;52.210;5.158;2022-07-23T01:34:42;101825.47;;;14.89;75.11
65329;BME280;51941;52.210;5.158;2022-07-23T01:37:10;101796.22;;;14.65;75.05
65329;BME280;51941;52.210;5.158;2022-07-23T01:39:37;101826.22;;;14.72;76.00
65329;BME280;51941;52.210;5.158;2022-07-23T01:42:07;101824.56;;;14.83;76.04
65329;BME280;51941;52.210;5.158;2022-07-23T01:44:34;101812.03;;;14.84;75.55
65329;BME280;51941;52.210;5.158;2022-07-23T01:47:04;101822.13;;;14.82;76.78
65329;BME280;51941;52.210;5.158;2022-07-23T01:49:30;101826.31;;;14.77;76.20
65329;BME280;51941;52.210;5.158;2022-07-23T01:51:58;101833.25;;;14.78;75.62
65329;BME280;51941;52.210;5.158;2022-07-23T01:54:33;101832.66;;;14.76;76.12
65329;BME280;51941;52.210;5.158;2022-07-23T01:57:03;101837.41;;;14.74;76.24
65329;BME280;51941;52.210;5.158;2022-07-23T01:59:32;101828.28;;;14.70;76.36
65329;BME280;51941;52.210;5.158;2022-07-23T02:01:59;101815.41;;;14.67;76.53
65329;BME280;51941;52.210;5.158;2022-07-23T02:04:27;101818.00;;;14.62;76.59
65329;BME280;51941;52.210;5.158;2022-07-23T02:06:54;101819.47;;;14.58;76.43
65329;BME280;51941;52.210;5.158;2022-07-23T02:09:21;101820.19;;;14.54;76.64
65329;BME280;51941;52.210;5.158;2022-07-23T02:11:48;101712.81;;;13.72;76.53
65329;BME280;51941;52.210;5.158;2022-07-23T02:14:18;101830.13;;;14.47;76.53
65329;BME280;51941;52.210;5.158;2022-07-23T02:16:47;101653.16;;;13.26;76.42
65329;BME280;51941;52.210;5.158;2022-07-23T02:19:14;101681.22;;;13.40;76.82
65329;BME280;51941;52.210;5.158;2022-07-23T02:21:41;101697.16;;;13.52;76.45
65329;BME280;51941;52.210;5.158;2022-07-23T02:24:08;101820.50;;;14.22;76.94
65329;BME280;51941;52.210;5.158;2022-07-23T02:26:36;101822.22;;;14.17;76.79
65329;BME280;51941;52.210;5.158;2022-07-23T02:29:05;101573.34;;;12.49;76.98
65329;BME280;51941;52.210;5.158;2022-07-23T02:31:32;101801.94;;;13.92;76.93
65329;BME280;51941;52.210;5.158;2022-07-23T02:34:01;101669.88;;;13.03;76.94
65329;BME280;51941;52.210;5.158;2022-07-23T02:36:29;101821.41;;;14.04;76.98
65329;BME280;51941;52.210;5.158;2022-07-23T02:38:57;101828.81;;;14.02;77.45
65329;BME280;51941;52.210;5.158;2022-07-23T02:41:25;101830.69;;;14.02;77.18
65329;BME280;51941;52.210;5.158;2022-07-23T02:43:51;101807.84;;;13.83;77.55
65329;BME280;51941;52.210;5.158;2022-07-23T02:46:18;101842.00;;;13.97;77.55
65329;BME280;51941;52.210;5.158;2022-07-23T02:48:45;101833.66;;;13.94;77.64
65329;BME280;51941;52.210;5.158;2022-07-23T02:51:15;101822.19;;;13.82;77.58
65329;BME280;51941;52.210;5.158;2022-07-23T02:53:49;101760.91;;;13.28;77.74
65329;BME280;51941;52.210;5.158;2022-07-23T02:56:16;101680.97;;;12.82;77.66
65329;BME280;51941;52.210;5.158;2022-07-23T02:58:43;101813.53;;;13.56;77.75
65329;BME280;51941;52.210;5.158;2022-07-23T03:01:10;101796.16;;;13.42;77.59
65329;BME280;51941;52.210;5.158;2022-07-23T03:03:36;101850.03;;;13.79;77.93
65329;BME280;51941;52.210;5.158;2022-07-23T03:06:04;101847.03;;;13.76;77.98
65329;BME280;51941;52.210;5.158;2022-07-23T03:08:32;101781.53;;;13.33;77.86
65329;BME280;51941;52.210;5.158;2022-07-23T03:11:00;101732.25;;;13.01;78.05
65329;BME280;51941;52.210;5.158;2022-07-23T03:13:27;101692.81;;;12.68;77.99
65329;BME280;51941;52.210;5.158;2022-07-23T03:15:55;101764.31;;;13.17;78.05
65329;BME280;51941;52.210;5.158;2022-07-23T03:18:21;101830.66;;;13.60;77.94
65329;BME280;51941;52.210;5.158;2022-07-23T03:20:48;101851.56;;;13.87;77.57
65329;BME280;51941;52.210;5.158;2022-07-23T03:23:16;101845.78;;;13.90;77.66
65329;BME280;51941;52.210;5.158;2022-07-23T03:25:44;101855.06;;;13.99;77.19
65329;BME280;51941;52.210;5.158;2022-07-23T03:28:12;101848.28;;;14.03;77.30
65329;BME280;51941;52.210;5.158;2022-07-23T03:30:39;101789.38;;;13.69;77.49
65329;BME280;51941;52.210;5.158;2022-07-23T03:33:05;101833.88;;;13.92;77.69
65329;BME280;51941;52.210;5.158;2022-07-23T03:35:32;101858.91;;;14.15;77.48
65329;BME280;51941;52.210;5.158;2022-07-23T03:38:11;101859.28;;;14.18;77.39
65329;BME280;51941;52.210;5.158;2022-07-23T03:40:39;101836.91;;;14.07;77.15
65329;BME280;51941;52.210;5.158;2022-07-23T03:43:08;101746.81;;;13.58;77.21
65329;BME280;51941;52.210;5.158;2022-07-23T03:45:34;101726.31;;;13.47;77.33
65329;BME280;51941;52.210;5.158;2022-07-23T03:48:01;101702.25;;;13.42;77.01
65329;BME280;51941;52.210;5.158;2022-07-23T03:50:29;101804.28;;;14.00;77.11
65329;BME280;51941;52.210;5.158;2022-07-23T03:52:56;101779.47;;;13.88;77.15
65329;BME280;51941;52.210;5.158;2022-07-23T03:55:23;101844.81;;;14.26;77.26
65329;BME280;51941;52.210;5.158;2022-07-23T03:57:50;101744.06;;;13.64;77.44
65329;BME280;51941;52.210;5.158;2022-07-23T04:00:18;101700.63;;;13.41;77.47
65329;BME280;51941;52.210;5.158;2022-07-23T04:02:48;101839.13;;;14.22;77.74
65329;BME280;51941;52.210;5.158;2022-07-23T04:05:16;101828.72;;;14.21;77.63
65329;BME280;51941;52.210;5.158;2022-07-23T04:07:46;101823.41;;;14.21;77.89
65329;BME280;51941;52.210;5.158;2022-07-23T04:10:14;101676.75;;;13.22;77.82
65329;BME280;51941;52.210;5.158;2022-07-23T04:12:41;101836.25;;;14.24;78.02
65329;BME280;51941;52.210;5.158;2022-07-23T04:15:08;101841.13;;;14.27;77.64
65329;BME280;51941;52.210;5.158;2022-07-23T04:17:37;101840.09;;;14.28;77.76
65329;BME280;51941;52.210;5.158;2022-07-23T04:20:05;101853.19;;;14.29;77.65
65329;BME280;51941;52.210;5.158;2022-07-23T04:22:38;101770.44;;;13.78;77.49
65329;BME280;51941;52.210;5.158;2022-07-23T04:25:06;101843.88;;;14.32;77.24
65329;BME280;51941;52.210;5.158;2022-07-23T04:27:33;101779.25;;;13.90;77.00
65329;BME280;51941;52.210;5.158;2022-07-23T04:30:00;101839.75;;;14.36;77.17
65329;BME280;51941;52.210;5.158;2022-07-23T04:32:27;101833.38;;;14.37;77.04
65329;BME280;51941;52.210;5.158;2022-07-23T04:34:56;101854.66;;;14.49;76.78
65329;BME280;51941;52.210;5.158;2022-07-23T04:37:22;101666.28;;;13.39;76.61
65329;BME280;51941;52.210;5.158;2022-07-23T04:39:49;101848.56;;;14.60;76.63
65329;BME280;51941;52.210;5.158;2022-07-23T04:42:16;101851.34;;;14.65;76.52
65329;BME280;51941;52.210;5.158;2022-07-23T04:44:43;101849.03;;;14.68;76.21
65329;BME280;51941;52.210;5.158;2022-07-23T04:47:10;101853.41;;;14.74;76.21
65329;BME280;51941;52.210;5.158;2022-07-23T04:49:37;101862.00;;;14.88;76.04
65329;BME280;51941;52.210;5.158;2022-07-23T04:52:05;101754.94;;;14.68;75.98
65329;BME280;51941;52.210;5.158;2022-07-23T04:54:32;101822.16;;;15.95;75.10
65329;BME280;51941;52.210;5.158;2022-07-23T04:57:00;101874.22;;;16.98;72.60
65329;BME280;51941;52.210;5.158;2022-07-23T04:59:26;101673.28;;;16.46;70.34
65329;BME280;51941;52.210;5.158;2022-07-23T05:01:58;101885.09;;;18.42;68.30
65329;BME280;51941;52.210;5.158;2022-07-23T05:04:25;101877.44;;;19.08;66.61
65329;BME280;51941;52.210;5.158;2022-07-23T05:06:52;101887.59;;;19.69;64.99
65329;BME280;51941;52.210;5.158;2022-07-23T05:09:20;101873.94;;;20.00;62.50
65329;BME280;51941;52.210;5.158;2022-07-23T05:11:47;101694.84;;;18.63;63.26
65329;BME280;51941;52.210;5.158;2022-07-23T05:14:14;101880.97;;;19.19;64.02
65329;BME280;51941;52.210;5.158;2022-07-23T05:16:42;101865.72;;;18.72;64.48
65329;BME280;51941;52.210;5.158;2022-07-23T05:19:15;101629.69;;;17.21;65.07
65329;BME280;51941;52.210;5.158;2022-07-23T05:21:42;101679.81;;;18.04;64.07
65329;BME280;51941;52.210;5.158;2022-07-23T05:24:11;101863.97;;;19.86;61.93
65329;BME280;51941;52.210;5.158;2022-07-23T05:26:39;101801.63;;;20.04;60.02
65329;BME280;51941;52.210;5.158;2022-07-23T05:29:06;101887.91;;;20.63;59.18
65329;BME280;51941;52.210;5.158;2022-07-23T05:31:34;101865.03;;;20.56;59.02
65329;BME280;51941;52.210;5.158;2022-07-23T05:34:01;101678.28;;;18.91;58.92
65329;BME280;51941;52.210;5.158;2022-07-23T05:36:28;101881.97;;;19.75;59.55
65329;BME280;51941;52.210;5.158;2022-07-23T05:38:57;101899.88;;;19.44;60.53
65329;BME280;51941;52.210;5.158;2022-07-23T05:41:26;101889.81;;;19.14;60.27
65329;BME280;51941;52.210;5.158;2022-07-23T05:43:54;101753.38;;;18.29;60.61
65329;BME280;51941;52.210;5.158;2022-07-23T05:46:22;101852.88;;;18.79;61.15
65329;BME280;51941;52.210;5.158;2022-07-23T05:48:53;101881.69;;;18.94;61.43
65329;BME280;51941;52.210;5.158;2022-07-23T05:51:49;101716.84;;;17.70;61.72
65329;BME280;51941;52.210;5.158;2022-07-23T05:54:23;101666.06;;;17.22;61.96
65329;BME280;51941;52.210;5.158;2022-07-23T05:56:50;101782.59;;;17.88;62.27
65329;BME280;51941;52.210;5.158;2022-07-23T05:59:19;101896.69;;;18.53;62.28
65329;BME280;51941;52.210;5.158;2022-07-23T06:01:46;101885.84;;;18.38;62.11
65329;BME280;51941;52.210;5.158;2022-07-23T06:04:14;101865.53;;;18.42;61.98
65329;BME280;51941;52.210;5.158;2022-07-23T06:06:51;101794.44;;;18.34;62.12
65329;BME280;51941;52.210;5.158;2022-07-23T06:09:19;101884.63;;;19.60;60.40
65329;BME280;51941;52.210;5.158;2022-07-23T06:11:46;101815.06;;;20.14;58.29
65329;BME280;51941;52.210;5.158;2022-07-23T06:14:13;101897.13;;;21.32;55.92
65329;BME280;51941;52.210;5.158;2022-07-23T06:16:55;101898.75;;;21.82;54.09
65329;BME280;51941;52.210;5.158;2022-07-23T06:19:22;101891.88;;;22.00;53.26
65329;BME280;51941;52.210;5.158;2022-07-23T06:21:49;101906.34;;;22.72;52.42
65329;BME280;51941;52.210;5.158;2022-07-23T06:24:16;101902.25;;;23.27;51.07
65329;BME280;51941;52.210;5.158;2022-07-23T06:26:43;101773.22;;;22.76;49.67
65329;BME280;51941;52.210;5.158;2022-07-23T06:29:10;101817.38;;;23.47;48.93
65329;BME280;51941;52.210;5.158;2022-07-23T06:31:37;101850.84;;;24.02;48.44
65329;BME280;51941;52.210;5.158;2022-07-23T06:34:05;101841.19;;;24.28;46.34
65329;BME280;51941;52.210;5.158;2022-07-23T06:36:35;101866.19;;;24.39;45.83
65329;BME280;51941;52.210;5.158;2022-07-23T06:39:02;101866.00;;;24.49;45.66
65329;BME280;51941;52.210;5.158;2022-07-23T06:41:28;101919.50;;;24.84;44.87
65329;BME280;51941;52.210;5.158;2022-07-23T06:43:55;101899.91;;;24.88;44.53
65329;BME280;51941;52.210;5.158;2022-07-23T06:46:22;101737.97;;;24.21;43.71
65329;BME280;51941;52.210;5.158;2022-07-23T06:48:50;101833.41;;;25.09;42.48
65329;BME280;51941;52.210;5.158;2022-07-23T06:51:19;101912.34;;;25.43;42.29
65329;BME280;51941;52.210;5.158;2022-07-23T06:53:46;101932.03;;;24.67;43.05
65329;BME280;51941;52.210;5.158;2022-07-23T06:56:13;101935.94;;;24.09;44.70
65329;BME280;51941;52.210;5.158;2022-07-23T06:58:40;101777.59;;;22.48;45.22
65329;BME280;51941;52.210;5.158;2022-07-23T07:01:07;101931.75;;;22.94;45.71
65329;BME280;51941;52.210;5.158;2022-07-23T07:03:34;101695.38;;;21.35;46.08
65329;BME280;51941;52.210;5.158;2022-07-23T07:06:02;101928.78;;;22.67;46.51
65329;BME280;51941;52.210;5.158;2022-07-23T07:08:30;101882.63;;;22.40;46.13
65329;BME280;51941;52.210;5.158;2022-07-23T07:11:03;101618.91;;;20.63;46.17
65329;BME280;51941;52.210;5.158;2022-07-23T07:13:35;101888.25;;;22.14;46.41
65329;BME280;51941;52.210;5.158;2022-07-23T07:32:34;101544.78;;;21.63;43.77
65329;BME280;51941;52.210;5.158;2022-07-23T08:02:23;101886.28;;;25.06;39.71
65329;BME280;51941;52.210;5.158;2022-07-23T08:04:50;101870.72;;;25.12;39.14
65329;BME280;51941;52.210;5.158;2022-07-23T08:07:20;101828.06;;;25.17;38.70
65329;BME280;51941;52.210;5.158;2022-07-23T08:09:47;101820.31;;;25.24;38.50
65329;BME280;51941;52.210;5.158;2022-07-23T08:12:14;101828.97;;;25.49;38.48
65329;BME280;51941;52.210;5.158;2022-07-23T08:14:42;101868.78;;;25.98;38.08
65329;BME280;51941;52.210;5.158;2022-07-23T08:17:10;101861.72;;;26.19;37.13
65329;BME280;51941;52.210;5.158;2022-07-23T08:19:38;101931.03;;;26.70;36.88
65329;BME280;51941;52.210;5.158;2022-07-23T08:22:05;101961.16;;;26.99;36.56
65329;BME280;51941;52.210;5.158;2022-07-23T08:24:32;101939.53;;;26.86;37.05
65329;BME280;51941;52.210;5.158;2022-07-23T08:26:59;101842.00;;;26.36;36.85
65329;BME280;51941;52.210;5.158;2022-07-23T08:29:26;101974.59;;;26.96;37.03
65329;BME280;51941;52.210;5.158;2022-07-23T08:31:52;101919.50;;;26.42;37.24
65329;BME280;51941;52.210;5.158;2022-07-23T08:34:19;101929.69;;;26.59;37.21
65329;BME280;51941;52.210;5.158;2022-07-23T08:36:48;101958.22;;;26.79;36.43
65329;BME280;51941;52.210;5.158;2022-07-23T08:39:14;101955.22;;;26.58;36.85
65329;BME280;51941;52.210;5.158;2022-07-23T08:41:42;101890.06;;;26.35;36.63
65329;BME280;51941;52.210;5.158;2022-07-23T08:44:09;101904.22;;;26.24;36.94
65329;BME280;51941;52.210;5.158;2022-07-23T08:46:36;101962.28;;;26.14;37.81
65329;BME280;51941;52.210;5.158;2022-07-23T08:49:06;101894.56;;;25.23;38.18
65329;BME280;51941;52.210;5.158;2022-07-23T08:51:33;101891.81;;;25.01;38.48
65329;BME280;51941;52.210;5.158;2022-07-23T08:54:02;101971.06;;;25.20;39.23
65329;BME280;51941;52.210;5.158;2022-07-23T08:56:29;101966.22;;;25.04;39.55
65329;BME280;51941;52.210;5.158;2022-07-23T08:58:56;101963.19;;;24.78;40.12
65329;BME280;51941;52.210;5.158;2022-07-23T09:01:24;101971.03;;;24.66;40.19
65329;BME280;51941;52.210;5.158;2022-07-23T09:03:53;101907.38;;;24.03;40.10
65329;BME280;51941;52.210;5.158;2022-07-23T09:06:20;101690.81;;;22.17;40.98
65329;BME280;51941;52.210;5.158;2022-07-23T09:08:47;101906.03;;;23.26;41.72
65329;BME280;51941;52.210;5.158;2022-07-23T09:11:17;101897.84;;;23.07;42.25
65329;BME280;51941;52.210;5.158;2022-07-23T09:13:46;101982.00;;;23.43;42.15
65329;BME280;51941;52.210;5.158;2022-07-23T09:16:15;101970.91;;;23.45;41.87
65329;BME280;51941;52.210;5.158;2022-07-23T09:18:44;101845.94;;;22.68;42.78
65329;BME280;51941;52.210;5.158;2022-07-23T09:21:15;101970.75;;;23.55;42.90
65329;BME280;51941;52.210;5.158;2022-07-23T09:23:44;101787.59;;;22.48;42.35
65329;BME280;51941;52.210;5.158;2022-07-23T09:26:25;101901.72;;;23.20;41.80
65329;BME280;51941;52.210;5.158;2022-07-23T09:28:57;101707.03;;;21.88;42.22
65329;BME280;51941;52.210;5.158;2022-07-23T09:31:25;101823.69;;;22.57;41.81
65329;BME280;51941;52.210;5.158;2022-07-23T09:34:06;101951.59;;;23.32;42.71
65329;BME280;51941;52.210;5.158;2022-07-23T09:37:11;101775.84;;;22.34;42.61
65329;BME280;51941;52.210;5.158;2022-07-23T09:39:41;101771.56;;;22.33;43.04
65329;BME280;51941;52.210;5.158;2022-07-23T09:42:15;101940.72;;;23.37;43.02
65329;BME280;51941;52.210;5.158;2022-07-23T09:44:44;101986.69;;;23.56;43.03
65329;BME280;51941;52.210;5.158;2022-07-23T09:47:11;101976.53;;;23.48;42.74
65329;BME280;51941;52.210;5.158;2022-07-23T09:49:38;101824.97;;;22.59;42.42
65329;BME280;51941;52.210;5.158;2022-07-23T09:52:05;101969.38;;;23.57;43.13
65329;BME280;51941;52.210;5.158;2022-07-23T09:54:33;101919.84;;;22.95;43.38
65329;BME280;51941;52.210;5.158;2022-07-23T09:57:03;101972.00;;;23.44;43.26
65329;BME280;51941;52.210;5.158;2022-07-23T09:59:34;101850.41;;;22.77;43.28
65329;BME280;51941;52.210;5.158;2022-07-23T10:02:02;101949.50;;;23.48;43.52
65329;BME280;51941;52.210;5.158;2022-07-23T10:04:36;101822.69;;;22.72;43.22
65329;BME280;51941;52.210;5.158;2022-07-23T10:07:23;101972.03;;;23.62;43.36
65329;BME280;51941;52.210;5.158;2022-07-23T10:10:11;101836.47;;;22.70;44.03
65329;BME280;51941;52.210;5.158;2022-07-23T10:13:05;101868.63;;;22.90;43.51
65329;BME280;51941;52.210;5.158;2022-07-23T10:16:01;101833.31;;;22.34;44.26
65329;BME280;51941;52.210;5.158;2022-07-23T10:18:29;101843.41;;;22.52;44.31
65329;BME280;51941;52.210;5.158;2022-07-23T10:20:57;101969.94;;;23.54;44.32
65329;BME280;51941;52.210;5.158;2022-07-23T10:23:35;101972.66;;;23.35;44.17
65329;BME280;51941;52.210;5.158;2022-07-23T10:26:10;101956.59;;;23.44;44.26
65329;BME280;51941;52.210;5.158;2022-07-23T10:29:00;101816.09;;;22.83;43.61
65329;BME280;51941;52.210;5.158;2022-07-23T10:31:40;101816.41;;;23.00;43.38
65329;BME280;51941;52.210;5.158;2022-07-23T10:34:12;101764.44;;;22.89;43.16
65329;BME280;51941;52.210;5.158;2022-07-23T10:36:46;101902.03;;;23.80;42.97
65329;BME280;51941;52.210;5.158;2022-07-23T10:39:15;101966.91;;;24.17;42.65
65329;BME280;51941;52.210;5.158;2022-07-23T10:41:44;101809.25;;;23.09;42.87
65329;BME280;51941;52.210;5.158;2022-07-23T10:44:13;101901.53;;;23.78;42.95
65329;BME280;51941;52.210;5.158;2022-07-23T10:46:58;101872.50;;;23.64;42.81
65329;BME280;51941;52.210;5.158;2022-07-23T10:49:43;101898.06;;;23.91;42.83
65329;BME280;51941;52.210;5.158;2022-07-23T10:52:20;101890.28;;;23.70;42.76
65329;BME280;51941;52.210;5.158;2022-07-23T10:54:48;101951.81;;;23.97;43.13
65329;BME280;51941;52.210;5.158;2022-07-23T10:57:17;101902.19;;;23.69;42.90
65329;BME280;51941;52.210;5.158;2022-07-23T11:00:15;101950.38;;;24.37;42.61
65329;BME280;51941;52.210;5.158;2022-07-23T11:02:50;101958.78;;;24.36;42.09
65329;BME280;51941;52.210;5.158;2022-07-23T11:05:19;101964.72;;;24.19;42.21
65329;BME280;51941;52.210;5.158;2022-07-23T11:10:53;101954.16;;;24.36;42.33
65329;BME280;51941;52.210;5.158;2022-07-23T11:13:36;101914.53;;;24.27;41.87
65329;BME280;51941;52.210;5.158;2022-07-23T11:16:12;101915.22;;;24.19;41.76
65329;BME280;51941;52.210;5.158;2022-07-23T11:19:07;101888.16;;;24.05;41.88
65329;BME280;51941;52.210;5.158;2022-07-23T11:21:45;101825.59;;;23.74;40.95
65329;BME280;51941;52.210;5.158;2022-07-23T11:24:20;101917.47;;;24.63;41.18
65329;BME280;51941;52.210;5.158;2022-07-23T11:26:59;101949.50;;;25.02;40.69
65329;BME280;51941;52.210;5.158;2022-07-23T11:29:47;101684.84;;;23.19;41.35
65329;BME280;51941;52.210;5.158;2022-07-23T11:32:28;101740.31;;;23.49;40.79
65329;BME280;51941;52.210;5.158;2022-07-23T11:34:57;101816.91;;;24.09;41.63
65329;BME280;51941;52.210;5.158;2022-07-23T11:37:32;101806.72;;;23.88;41.92
65329;BME280;51941;52.210;5.158;2022-07-23T11:40:00;101937.91;;;24.69;41.70
65329;BME280;51941;52.210;5.158;2022-07-23T11:42:27;101773.56;;;23.50;42.08
65329;BME280;51941;52.210;5.158;2022-07-23T11:44:54;101759.50;;;23.34;42.41
65329;BME280;51941;52.210;5.158;2022-07-23T11:47:23;101903.53;;;24.23;42.36
65329;BME280;51941;52.210;5.158;2022-07-23T11:49:54;101949.06;;;24.81;42.15
65329;BME280;51941;52.210;5.158;2022-07-23T11:52:24;101927.84;;;24.56;42.04
65329;BME280;51941;52.210;5.158;2022-07-23T11:54:52;101980.06;;;24.75;42.09
65329;BME280;51941;52.210;5.158;2022-07-23T11:57:20;101881.75;;;24.15;42.06
65329;BME280;51941;52.210;5.158;2022-07-23T11:59:51;101882.88;;;24.27;41.24
65329;BME280;51941;52.210;5.158;2022-07-23T12:02:20;101903.78;;;24.54;40.83
65329;BME280;51941;52.210;5.158;2022-07-23T12:04:49;101697.44;;;22.91;41.15
65329;BME280;51941;52.210;5.158;2022-07-23T12:07:29;101958.06;;;24.63;40.42
65329;BME280;51941;52.210;5.158;2022-07-23T12:09:57;101784.13;;;23.65;40.90
65329;BME280;51941;52.210;5.158;2022-07-23T12:12:25;101878.22;;;24.33;40.61
65329;BME280;51941;52.210;5.158;2022-07-23T12:14:53;101769.41;;;23.38;40.66
65329;BME280;51941;52.210;5.158;2022-07-23T12:17:21;101948.06;;;24.44;40.50
65329;BME280;51941;52.210;5.158;2022-07-23T12:19:54;101885.84;;;24.12;40.77
65329;BME280;51941;52.210;5.158;2022-07-23T12:22:21;101908.09;;;24.41;40.51
65329;BME280;51941;52.210;5.158;2022-07-23T12:24:55;101778.97;;;23.82;40.66
65329;BME280;51941;52.210;5.158;2022-07-23T12:27:22;101759.34;;;23.90;40.32
65329;BME280;51941;52.210;5.158;2022-07-23T12:29:49;101795.19;;;24.42;39.69
65329;BME280;51941;52.210;5.158;2022-07-23T12:32:17;101754.28;;;24.16;39.30
65329;BME280;51941;52.210;5.158;2022-07-23T12:34:44;101834.91;;;24.46;39.27
65329;BME280;51941;52.210;5.158;2022-07-23T12:37:26;101800.22;;;24.21;39.60
65329;BME280;51941;52.210;5.158;2022-07-23T12:39:55;101780.94;;;24.09;40.05
65329;BME280;51941;52.210;5.158;2022-07-23T12:42:22;101932.03;;;24.94;39.56
65329;BME280;51941;52.210;5.158;2022-07-23T12:45:09;101932.50;;;24.69;39.53
65329;BME280;51941;52.210;5.158;2022-07-23T12:47:54;101840.38;;;24.14;39.65
65329;BME280;51941;52.210;5.158;2022-07-23T12:50:38;101820.41;;;23.96;39.20
65329;BME280;51941;52.210;5.158;2022-07-23T12:53:08;101935.34;;;24.45;40.01
65329;BME280;51941;52.210;5.158;2022-07-23T12:55:38;101931.81;;;24.63;39.94
65329;BME280;51941;52.210;5.158;2022-07-23T12:58:08;101923.72;;;24.91;39.41
65329;BME280;51941;52.210;5.158;2022-07-23T13:00:50;101916.78;;;24.98;39.98
65329;BME280;51941;52.210;5.158;2022-07-23T13:03:22;101886.84;;;24.48;40.46
65329;BME280;51941;52.210;5.158;2022-07-23T13:05:49;101921.09;;;24.99;40.67
65329;BME280;51941;52.210;5.158;2022-07-23T13:08:16;101921.28;;;25.16;40.28
65329;BME280;51941;52.210;5.158;2022-07-23T13:10:44;101900.22;;;25.13;39.14
65329;BME280;51941;52.210;5.158;2022-07-23T13:13:13;101877.34;;;25.06;38.97
65329;BME280;51941;52.210;5.158;2022-07-23T13:15:39;101919.66;;;25.43;38.84
65329;BME280;51941;52.210;5.158;2022-07-23T13:18:06;101846.25;;;25.03;38.46
65329;BME280;51941;52.210;5.158;2022-07-23T13:20:33;101844.66;;;25.02;38.43
65329;BME280;51941;52.210;5.158;2022-07-23T13:23:00;101914.19;;;25.70;37.83
65329;BME280;51941;52.210;5.158;2022-07-23T13:25:27;101912.16;;;25.76;37.66
65329;BME280;51941;52.210;5.158;2022-07-23T13:27:55;101839.88;;;25.35;37.46
65329;BME280;51941;52.210;5.158;2022-07-23T13:30:22;101866.97;;;25.71;36.99
65329;BME280;51941;52.210;5.158;2022-07-23T13:32:49;101777.47;;;25.13;36.75
65329;BME280;51941;52.210;5.158;2022-07-23T13:35:15;101917.75;;;26.15;36.60
65329;BME280;51941;52.210;5.158;2022-07-23T13:37:42;101916.84;;;26.28;36.51
65329;BME280;51941;52.210;5.158;2022-07-23T13:40:10;101863.09;;;25.86;36.34
65329;BME280;51941;52.210;5.158;2022-07-23T13:42:37;101804.53;;;25.40;35.66
65329;BME280;51941;52.210;5.158;2022-07-23T13:45:07;101904.56;;;25.86;35.42
65329;BME280;51941;52.210;5.158;2022-07-23T13:47:33;101878.78;;;25.75;36.00
65329;BME280;51941;52.210;5.158;2022-07-23T13:50:00;101844.81;;;25.33;36.70